Time;durP1;ratioP1;P1;durP2;ratioP2;P2;SDS_P1;SDS_P2;PMS_P1;PMS_P2;Temp;Humidity;BMP_temperature;BMP_pressure;BME280_temperature;BME280_humidity;BME280_pressure;Samples;Min_cycle;Max_cycle;Signal;HPM_P1;HPM_P2
2023/05/08 00:01:54;;;;;;;13.88;12.38;;;12.30;99.90;;;;;;5109280;28;20043;-83
2023/05/08 00:04:19;;;;;;;13.77;12.48;;;12.20;99.90;;;;;;5110176;28;20527;-84
2023/05/08 00:06:46;;;;;;;14.95;13.38;;;12.20;99.90;;;;;;5109356;28;20054;-83
2023/05/08 00:09:12;;;;;;;16.23;13.82;;;12.20;99.90;;;;;;5108747;28;20452;-84
2023/05/08 00:11:37;;;;;;;16.60;14.10;;;12.10;99.90;;;;;;5090062;28;20036;-84
2023/05/08 00:14:03;;;;;;;15.75;13.23;;;12.10;99.90;;;;;;5109791;27;20046;-83
2023/05/08 00:16:29;;;;;;;14.95;13.35;;;12.10;99.90;;;;;;5100067;28;20645;-83
2023/05/08 00:18:55;;;;;;;14.60;12.63;;;12.10;99.90;;;;;;5101894;28;20082;-83
2023/05/08 00:21:27;;;;;;;15.27;13.68;;;12.00;99.90;;;;;;5108827;28;20036;-84
2023/05/08 00:23:52;;;;;;;14.98;13.40;;;12.10;99.90;;;;;;5109924;28;20054;-83
2023/05/08 00:26:18;;;;;;;17.10;13.63;;;12.10;99.90;;;;;;5108413;28;20036;-83
2023/05/08 00:28:43;;;;;;;14.55;13.05;;;12.00;99.90;;;;;;5110312;27;20040;-83
2023/05/08 00:31:09;;;;;;;15.45;13.35;;;11.90;99.90;;;;;;5118164;27;20054;-83
2023/05/08 00:33:35;;;;;;;14.40;12.90;;;11.90;99.90;;;;;;5121777;27;20404;-83
2023/05/08 00:36:01;;;;;;;16.02;12.60;;;11.90;99.90;;;;;;5110139;28;20132;-83
2023/05/08 00:38:30;;;;;;;14.95;12.50;;;11.90;99.90;;;;;;5106951;28;20043;-83
2023/05/08 00:40:56;;;;;;;15.02;13.45;;;11.90;99.90;;;;;;5108461;28;20050;-83
2023/05/08 00:43:24;;;;;;;14.90;13.18;;;11.90;99.90;;;;;;5108056;28;20039;-83
2023/05/08 00:45:50;;;;;;;14.23;12.73;;;11.90;99.90;;;;;;5093916;27;20174;-83
2023/05/08 00:48:17;;;;;;;15.00;12.90;;;11.90;99.90;;;;;;5093195;27;20086;-83
2023/05/08 00:50:43;;;;;;;13.85;11.90;;;11.90;99.90;;;;;;5130266;27;20074;-83
2023/05/08 00:53:11;;;;;;;13.27;11.93;;;11.90;99.90;;;;;;5095195;27;20067;-83
2023/05/08 00:55:37;;;;;;;13.85;12.10;;;12.50;99.90;;;;;;5111734;27;20054;-83
2023/05/08 00:58:03;;;;;;;13.32;11.85;;;11.90;99.90;;;;;;5126520;27;20120;-83
2023/05/08 01:00:31;;;;;;;13.93;12.45;;;11.90;99.90;;;;;;5090931;27;20043;-82
2023/05/08 01:02:58;;;;;;;14.38;12.95;;;11.80;99.90;;;;;;5112760;27;20039;-83
2023/05/08 01:05:24;;;;;;;14.65;13.13;;;11.90;99.90;;;;;;5095170;27;20395;-83
2023/05/08 01:07:50;;;;;;;15.93;13.65;;;11.80;99.90;;;;;;5130965;27;20059;-83
2023/05/08 01:10:15;;;;;;;14.75;13.20;;;11.80;99.90;;;;;;5110830;27;20055;-83
2023/05/08 01:13:13;;;;;;;14.60;13.10;;;11.80;99.90;;;;;;5130585;27;20066;-83
2023/05/08 01:15:46;;;;;;;13.85;12.35;;;11.70;99.90;;;;;;5096493;27;20485;-83
2023/05/08 01:18:34;;;;;;;14.32;12.30;;;11.70;99.90;;;;;;5112157;27;20047;-83
2023/05/08 01:21:22;;;;;;;16.00;13.52;;;11.70;99.90;;;;;;5111174;27;20039;-83
2023/05/08 01:23:57;;;;;;;16.15;12.88;;;11.70;99.90;;;;;;5111031;27;20057;-83
2023/05/08 01:26:36;;;;;;;14.32;12.82;;;11.70;99.90;;;;;;5101991;27;20043;-82
2023/05/08 01:29:24;;;;;;;14.75;12.80;;;11.70;99.90;;;;;;5112388;27;20595;-83
2023/05/08 01:32:09;;;;;;;15.90;13.40;;;11.70;99.90;;;;;;5097746;28;20039;-83
2023/05/08 01:34:42;;;;;;;15.27;13.68;;;11.60;99.90;;;;;;5114222;27;20031;-83
2023/05/08 01:37:13;;;;;;;15.30;13.75;;;11.60;99.90;;;;;;5100033;27;20039;-83
2023/05/08 01:40:19;;;;;;;16.13;13.43;;;11.60;99.90;;;;;;5130669;27;20043;-83
2023/05/08 01:43:16;;;;;;;14.95;12.35;;;11.50;99.90;;;;;;5022687;27;20943;-82
2023/05/08 01:45:47;;;;;;;14.63;13.13;;;11.50;99.90;;;;;;5094227;27;20051;-83
2023/05/08 01:48:18;;;;;;;14.82;13.25;;;11.50;99.90;;;;;;5109891;27;20047;-83
2023/05/08 01:50:47;;;;;;;13.90;12.40;;;11.50;99.90;;;;;;5110135;27;20043;-83
2023/05/08 01:53:21;;;;;;;13.98;12.48;;;11.40;99.90;;;;;;5110400;27;20284;-83
2023/05/08 01:55:49;;;;;;;15.05;13.45;;;11.40;99.90;;;;;;5092603;27;20043;-83
2023/05/08 01:58:15;;;;;;;14.80;13.20;;;11.40;99.90;;;;;;5111307;27;20078;-83
2023/05/08 02:00:42;;;;;;;13.73;12.27;;;11.30;99.90;;;;;;5128955;27;20119;-83
2023/05/08 02:03:10;;;;;;;14.82;13.32;;;11.30;99.90;;;;;;5109883;27;20462;-83
2023/05/08 02:05:37;;;;;;;15.57;13.95;;;11.20;99.90;;;;;;5111059;27;20043;-83
2023/05/08 02:08:04;;;;;;;15.02;13.20;;;11.20;99.90;;;;;;5110185;27;20054;-83
2023/05/08 02:10:30;;;;;;;14.50;12.93;;;11.20;99.90;;;;;;5129822;27;20051;-83
2023/05/08 02:12:59;;;;;;;15.30;13.48;;;11.10;99.90;;;;;;5096819;28;20068;-83
2023/05/08 02:15:26;;;;;;;13.48;12.05;;;11.10;99.90;;;;;;5103706;28;20071;-83
2023/05/08 02:17:54;;;;;;;14.45;12.68;;;11.10;99.90;;;;;;5129047;27;20055;-82
2023/05/08 02:20:21;;;;;;;15.98;14.05;;;11.40;99.90;;;;;;5109883;27;20092;-84
2023/05/08 02:22:49;;;;;;;15.27;12.70;;;11.00;99.90;;;;;;5108852;28;20155;-83
2023/05/08 02:25:15;;;;;;;14.02;12.63;;;11.00;99.90;;;;;;5133757;27;20160;-83
2023/05/08 02:27:44;;;;;;;14.35;12.85;;;10.90;99.90;;;;;;5126236;27;20586;-82
2023/05/08 02:30:15;;;;;;;13.90;11.75;;;11.10;99.90;;;;;;5111072;27;20146;-83
2023/05/08 02:32:46;;;;;;;14.02;12.63;;;11.40;99.90;;;;;;5109492;27;20074;-83
2023/05/08 02:35:14;;;;;;;13.60;12.20;;;10.90;99.90;;;;;;5093597;27;20050;-83
2023/05/08 02:37:42;;;;;;;15.07;12.77;;;10.80;99.90;;;;;;5127094;27;20051;-82
2023/05/08 02:40:10;;;;;;;15.50;12.88;;;10.80;99.90;;;;;;5149299;27;20428;-83
2023/05/08 02:42:36;;;;;;;14.15;12.68;;;10.70;99.90;;;;;;5111716;27;20047;-83
2023/05/08 02:45:03;;;;;;;15.38;12.80;;;10.70;99.90;;;;;;5128228;27;20050;-83
2023/05/08 02:47:44;;;;;;;14.45;12.82;;;10.70;99.90;;;;;;5124999;27;20055;-83
2023/05/08 02:50:46;;;;;;;14.30;12.80;;;10.60;99.90;;;;;;5110898;27;20078;-83
2023/05/08 02:53:19;;;;;;;14.80;12.15;;;10.60;99.90;;;;;;5108887;27;20044;-83
2023/05/08 02:55:59;;;;;;;13.75;12.25;;;10.50;99.90;;;;;;5109365;27;20039;-83
2023/05/08 02:58:43;;;;;;;13.57;12.15;;;10.60;99.90;;;;;;5128405;27;20039;-83
2023/05/08 03:01:43;;;;;;;19.08;13.00;;;10.70;99.90;;;;;;5109635;27;20047;-83
2023/05/08 03:04:11;;;;;;;15.20;12.85;;;10.50;99.90;;;;;;5088550;28;20058;-83
2023/05/08 03:06:41;;;;;;;13.70;12.32;;;10.50;99.90;;;;;;5109208;28;20377;-83
2023/05/08 03:09:15;;;;;;;14.82;13.18;;;10.40;99.90;;;;;;5104053;28;20047;-83
2023/05/08 03:11:43;;;;;;;14.77;13.07;;;10.40;99.90;;;;;;5108161;28;20054;-83
2023/05/08 03:14:12;;;;;;;14.55;12.25;;;10.40;99.90;;;;;;5108779;28;20047;-82
2023/05/08 03:16:41;;;;;;;14.23;11.98;;;10.30;99.90;;;;;;5107655;28;20118;-83
2023/05/08 03:19:19;;;;;;;14.38;12.20;;;10.30;99.90;;;;;;5109738;28;20421;-83
2023/05/08 03:21:46;;;;;;;14.07;12.20;;;10.30;99.90;;;;;;5126856;28;20066;-83
2023/05/08 03:24:16;;;;;;;14.13;12.35;;;10.30;99.90;;;;;;5092503;28;20074;-83
2023/05/08 03:26:43;;;;;;;14.48;12.88;;;10.40;99.90;;;;;;5109140;28;20047;-83
2023/05/08 03:29:12;;;;;;;14.52;12.55;;;10.40;99.90;;;;;;5108838;28;20061;-82
2023/05/08 03:31:39;;;;;;;14.60;13.05;;;10.40;99.90;;;;;;5108939;27;20474;-83
2023/05/08 03:34:05;;;;;;;13.68;11.88;;;10.40;99.90;;;;;;5125766;27;20465;-83
2023/05/08 03:36:31;;;;;;;15.40;13.38;;;10.40;99.90;;;;;;5129558;27;20138;-83
2023/05/08 03:38:59;;;;;;;13.82;12.32;;;10.40;99.90;;;;;;5112933;27;20161;-83
2023/05/08 03:41:25;;;;;;;15.68;13.43;;;10.40;99.90;;;;;;5113377;27;20037;-83
2023/05/08 03:43:51;;;;;;;15.82;13.38;;;10.40;99.90;;;;;;5113105;27;20047;-83
2023/05/08 03:46:18;;;;;;;15.43;13.60;;;10.30;99.90;;;;;;5091679;28;20194;-83
2023/05/08 03:48:45;;;;;;;15.30;12.73;;;10.50;99.90;;;;;;5106896;28;20481;-83
2023/05/08 03:51:18;;;;;;;15.02;12.30;;;10.10;99.90;;;;;;5102598;28;20185;-83
2023/05/08 03:53:43;;;;;;;15.77;12.75;;;10.40;99.90;;;;;;5093416;28;20071;-83
2023/05/08 03:56:09;;;;;;;17.27;13.35;;;10.20;99.90;;;;;;5109556;28;20130;-83
2023/05/08 03:58:47;;;;;;;14.27;12.60;;;10.20;99.90;;;;;;5092942;28;20126;-83
2023/05/08 04:01:53;;;;;;;15.45;11.80;;;10.20;99.90;;;;;;5110168;28;20086;-83
2023/05/08 04:04:38;;;;;;;14.35;12.20;;;10.10;99.90;;;;;;5091012;27;20062;-83
2023/05/08 04:07:14;;;;;;;15.73;12.80;;;10.10;99.90;;;;;;5114833;27;20407;-83
2023/05/08 04:10:03;;;;;;;15.52;13.32;;;10.00;99.90;;;;;;5109918;28;20420;-83
2023/05/08 04:12:48;;;;;;;15.15;12.35;;;10.00;99.90;;;;;;5092649;28;20134;-83
2023/05/08 04:15:21;;;;;;;14.38;12.52;;;10.00;99.90;;;;;;5107186;28;20435;-84
2023/05/08 04:17:56;;;;;;;13.88;12.20;;;10.00;99.90;;;;;;5094370;28;20043;-84
2023/05/08 04:20:25;;;;;;;14.32;11.98;;;9.90;99.90;;;;;;5105506;27;20111;-83
2023/05/08 04:22:53;;;;;;;13.77;11.93;;;9.90;99.90;;;;;;5112567;27;20047;-83
2023/05/08 04:25:19;;;;;;;13.75;11.82;;;10.00;99.90;;;;;;5109461;28;20084;-83
2023/05/08 04:27:47;;;;;;;14.15;12.02;;;10.10;99.90;;;;;;5093953;28;20047;-83
2023/05/08 04:30:13;;;;;;;15.57;12.05;;;9.90;99.90;;;;;;5110788;28;20044;-83
2023/05/08 04:32:40;;;;;;;14.27;11.43;;;9.90;99.90;;;;;;5071548;28;20056;-83
2023/05/08 04:35:06;;;;;;;14.57;12.38;;;9.90;99.90;;;;;;5110550;28;20039;-83
2023/05/08 04:37:32;;;;;;;16.02;13.30;;;9.90;99.90;;;;;;5109077;27;20035;-83
2023/05/08 04:39:59;;;;;;;15.38;12.93;;;9.90;99.90;;;;;;5109734;28;20047;-83
2023/05/08 04:42:25;;;;;;;13.93;12.25;;;9.90;99.90;;;;;;5093813;28;20539;-83
2023/05/08 04:44:51;;;;;;;13.70;12.02;;;9.90;99.90;;;;;;5090719;28;20505;-82
2023/05/08 04:47:17;;;;;;;14.48;11.98;;;10.00;99.90;;;;;;5125129;27;20122;-83
2023/05/08 04:49:43;;;;;;;14.02;12.38;;;10.00;99.90;;;;;;5109557;27;20051;-83
2023/05/08 04:52:09;;;;;;;15.75;12.95;;;10.00;99.90;;;;;;5112417;27;20046;-83
2023/05/08 04:54:35;;;;;;;16.58;12.50;;;10.10;99.90;;;;;;5093740;27;20039;-83
2023/05/08 04:57:01;;;;;;;14.13;12.63;;;10.10;99.90;;;;;;5111652;27;20039;-83
2023/05/08 04:59:28;;;;;;;16.05;12.27;;;10.10;99.90;;;;;;5112589;27;20100;-83
2023/05/08 05:01:54;;;;;;;14.45;12.63;;;10.10;99.90;;;;;;5113588;27;20058;-84
2023/05/08 05:04:21;;;;;;;13.43;11.48;;;10.20;99.90;;;;;;5095477;27;20039;-83
2023/05/08 05:06:47;;;;;;;13.88;11.93;;;10.20;99.90;;;;;;5111431;27;20042;-84
2023/05/08 05:09:12;;;;;;;14.98;11.85;;;10.10;99.90;;;;;;5093432;27;20043;-83
2023/05/08 05:11:38;;;;;;;13.50;12.10;;;10.10;99.90;;;;;;5109938;27;20035;-83
2023/05/08 05:14:06;;;;;;;13.77;12.02;;;10.20;99.90;;;;;;5112912;27;20054;-84
2023/05/08 05:16:32;;;;;;;15.10;11.75;;;10.20;99.90;;;;;;5109238;27;20051;-84
2023/05/08 05:18:58;;;;;;;14.35;12.02;;;10.30;99.90;;;;;;5112592;27;20054;-84
2023/05/08 05:21:24;;;;;;;14.25;11.95;;;10.40;99.90;;;;;;5101468;27;20096;-83
2023/05/08 05:23:49;;;;;;;12.52;11.23;;;10.40;99.90;;;;;;5109680;27;20035;-84
2023/05/08 05:26:15;;;;;;;14.23;12.25;;;10.40;99.90;;;;;;5102318;27;20089;-85
2023/05/08 05:28:41;;;;;;;14.18;12.68;;;10.40;99.90;;;;;;5094238;27;20047;-84
2023/05/08 05:31:06;;;;;;;14.15;11.85;;;10.50;99.90;;;;;;5095150;27;20051;-84
2023/05/08 05:33:32;;;;;;;14.07;12.15;;;10.50;99.90;;;;;;5111040;27;20054;-84
2023/05/08 05:35:58;;;;;;;13.00;11.30;;;10.70;99.90;;;;;;5111334;27;20065;-84
2023/05/08 05:38:24;;;;;;;13.25;11.77;;;11.10;99.90;;;;;;5111848;27;20035;-83
2023/05/08 05:40:49;;;;;;;12.40;11.02;;;12.00;99.90;;;;;;5112852;27;20064;-85
2023/05/08 05:43:15;;;;;;;12.63;11.27;;;12.90;99.90;;;;;;5111761;27;20047;-84
2023/05/08 05:45:41;;;;;;;13.15;10.65;;;13.60;99.90;;;;;;5112140;27;20086;-84
2023/05/08 05:48:06;;;;;;;12.50;11.20;;;14.30;99.90;;;;;;5129327;27;20390;-84
2023/05/08 05:50:32;;;;;;;11.88;10.73;;;14.90;99.90;;;;;;5127138;27;20077;-83
2023/05/08 05:52:57;;;;;;;12.32;11.13;;;15.10;99.90;;;;;;5094434;27;20469;-84
2023/05/08 05:55:23;;;;;;;11.18;10.07;;;15.50;99.90;;;;;;5111405;27;20051;-84
2023/05/08 05:57:49;;;;;;;11.13;10.07;;;15.70;99.90;;;;;;5111304;27;20048;-86
2023/05/08 06:00:16;;;;;;;11.60;10.50;;;16.00;99.90;;;;;;5126142;27;20039;-85
2023/05/08 06:02:42;;;;;;;11.57;10.40;;;16.30;99.90;;;;;;5109841;27;20058;-84
2023/05/08 06:05:09;;;;;;;11.63;10.52;;;17.00;99.90;;;;;;5094250;27;20475;-84
2023/05/08 06:07:34;;;;;;;11.77;10.57;;;16.60;99.90;;;;;;5112093;27;20039;-84
2023/05/08 06:10:00;;;;;;;12.05;10.85;;;16.90;99.90;;;;;;5129930;27;20408;-84
2023/05/08 06:12:27;;;;;;;10.63;9.60;;;16.90;99.90;;;;;;5111376;27;20047;-84
2023/05/08 06:14:53;;;;;;;11.35;10.15;;;16.80;99.90;;;;;;5111185;27;20074;-84
2023/05/08 06:17:19;;;;;;;19.67;12.73;;;16.40;99.90;;;;;;5111002;27;20039;-81
2023/05/08 06:19:52;;;;;;;11.40;10.20;;;15.60;99.90;;;;;;5110243;27;20057;-80
2023/05/08 06:22:22;;;;;;;11.32;10.23;;;14.90;99.90;;;;;;5129857;27;20122;-80
2023/05/08 06:24:48;;;;;;;11.07;10.05;;;14.40;99.90;;;;;;5129675;27;20122;-83
2023/05/08 06:27:13;;;;;;;11.40;10.30;;;14.20;99.90;;;;;;5130212;27;20126;-82
2023/05/08 06:29:39;;;;;;;11.45;10.35;;;14.00;99.90;;;;;;5112689;27;20043;-83
2023/05/08 06:32:05;;;;;;;10.48;9.48;;;13.90;99.90;;;;;;5113238;27;20123;-83
2023/05/08 06:34:30;;;;;;;11.35;10.25;;;13.90;99.90;;;;;;5128431;27;20515;-83
2023/05/08 06:36:56;;;;;;;11.90;10.40;;;13.90;99.90;;;;;;5129575;27;20439;-86
2023/05/08 06:39:22;;;;;;;11.55;10.23;;;13.80;99.90;;;;;;5092790;27;20428;-88
2023/05/08 06:41:48;;;;;;;11.18;10.07;;;13.90;99.90;;;;;;5108782;27;20107;-85
2023/05/08 06:44:14;;;;;;;12.32;11.00;;;13.90;99.90;;;;;;5127864;27;20092;-87
2023/05/08 06:46:40;;;;;;;10.68;9.68;;;14.00;99.90;;;;;;5091901;27;20822;-85
2023/05/08 06:49:06;;;;;;;11.32;10.30;;;14.10;99.90;;;;;;5138806;27;20126;-86
2023/05/08 06:51:31;;;;;;;11.73;10.52;;;14.20;99.90;;;;;;5129904;27;20085;-84
2023/05/08 06:53:57;;;;;;;11.23;10.13;;;14.20;99.90;;;;;;5131168;27;20070;-85
2023/05/08 06:56:23;;;;;;;11.43;10.30;;;14.10;99.90;;;;;;5149803;27;20181;-86
2023/05/08 06:58:49;;;;;;;11.63;10.52;;;14.00;99.90;;;;;;5149359;27;20464;-85
2023/05/08 07:01:14;;;;;;;12.18;11.07;;;14.10;99.90;;;;;;5130855;27;20038;-84
2023/05/08 07:03:40;;;;;;;11.35;10.25;;;14.10;99.90;;;;;;5149656;27;20469;-85
2023/05/08 07:06:10;;;;;;;11.00;9.90;;;14.20;99.90;;;;;;5137495;27;20039;-86
2023/05/08 07:08:36;;;;;;;12.82;10.70;;;14.20;99.90;;;;;;5127837;27;20043;-86
2023/05/08 07:11:02;;;;;;;12.18;10.88;;;14.30;99.90;;;;;;5139914;27;20121;-86
2023/05/08 07:13:28;;;;;;;12.38;10.40;;;14.40;99.90;;;;;;5129760;27;20050;-87
2023/05/08 07:15:54;;;;;;;11.60;10.50;;;14.60;99.90;;;;;;5148547;27;20048;-87
2023/05/08 07:18:20;;;;;;;13.27;10.68;;;14.80;99.90;;;;;;5147183;27;20133;-86
2023/05/08 07:20:46;;;;;;;10.57;9.57;;;15.10;99.90;;;;;;5147236;27;20126;-88
2023/05/08 07:23:12;;;;;;;15.40;11.02;;;15.70;99.90;;;;;;5128874;27;20096;-87
2023/05/08 07:25:37;;;;;;;11.27;10.18;;;15.60;99.90;;;;;;5145920;27;20057;-87
2023/05/08 07:28:03;;;;;;;11.88;10.77;;;15.70;99.90;;;;;;5111017;28;20481;-86
2023/05/08 07:30:29;;;;;;;11.00;9.88;;;15.60;99.90;;;;;;5108175;28;20509;-86
2023/05/08 07:32:55;;;;;;;11.98;10.88;;;15.70;99.90;;;;;;5109325;28;20471;-87
2023/05/08 07:35:21;;;;;;;11.52;10.32;;;15.70;99.90;;;;;;5093240;28;20404;-87
2023/05/08 07:37:47;;;;;;;14.65;9.90;;;15.80;99.90;;;;;;5109758;28;20054;-86
2023/05/08 07:40:12;;;;;;;12.07;10.85;;;16.10;99.90;;;;;;5109418;28;20043;-87
2023/05/08 07:42:39;;;;;;;11.63;10.52;;;16.30;99.90;;;;;;5110145;28;20065;-87
2023/05/08 07:45:07;;;;;;;11.43;10.32;;;16.50;99.90;;;;;;5109849;28;20079;-86
2023/05/08 07:47:32;;;;;;;10.88;9.88;;;16.70;99.90;;;;;;5105203;28;20398;-85
2023/05/08 07:49:58;;;;;;;10.93;9.90;;;17.30;99.90;;;;;;5109049;28;20044;-85
2023/05/08 07:52:23;;;;;;;11.15;10.13;;;17.30;99.90;;;;;;5109424;28;20088;-85
2023/05/08 07:54:49;;;;;;;10.65;9.65;;;17.20;99.90;;;;;;5109233;27;20175;-85
2023/05/08 07:57:15;;;;;;;10.75;9.75;;;17.20;99.90;;;;;;5103454;27;20047;-85
2023/05/08 07:59:40;;;;;;;11.07;10.13;;;17.10;99.90;;;;;;5116906;28;20527;-85
2023/05/08 08:02:06;;;;;;;11.02;10.02;;;17.00;99.90;;;;;;5091224;27;20100;-84
2023/05/08 08:04:32;;;;;;;10.80;9.68;;;16.90;99.90;;;;;;5107409;27;20515;-84
2023/05/08 08:06:57;;;;;;;10.77;9.77;;;16.90;99.90;;;;;;5104068;28;20403;-85
2023/05/08 08:09:23;;;;;;;11.90;10.70;;;16.80;99.90;;;;;;5127044;27;20057;-83
2023/05/08 08:11:49;;;;;;;11.38;10.20;;;16.80;99.90;;;;;;5122194;28;20050;-84
2023/05/08 08:14:15;;;;;;;11.70;10.68;;;16.90;99.90;;;;;;5076667;28;20073;-84
2023/05/08 08:16:41;;;;;;;11.48;10.38;;;17.80;99.90;;;;;;5106387;28;20047;-84
2023/05/08 08:19:07;;;;;;;12.40;9.98;;;17.20;99.90;;;;;;5092914;28;20043;-84
2023/05/08 08:21:33;;;;;;;11.15;10.15;;;17.50;99.90;;;;;;5122717;27;20406;-84
2023/05/08 08:23:58;;;;;;;10.88;9.88;;;17.80;99.90;;;;;;5131835;27;20077;-86
2023/05/08 08:26:24;;;;;;;11.75;10.65;;;17.70;99.90;;;;;;5121889;27;20046;-86
2023/05/08 08:28:50;;;;;;;10.30;9.40;;;17.80;99.90;;;;;;5110459;27;20066;-86
2023/05/08 08:31:16;;;;;;;10.68;9.68;;;18.00;99.90;;;;;;5130006;27;20108;-86
2023/05/08 08:33:42;;;;;;;11.65;10.57;;;18.20;99.90;;;;;;5131155;27;20126;-86
2023/05/08 08:36:14;;;;;;;10.85;9.90;;;18.30;99.90;;;;;;5131498;27;20170;-86
2023/05/08 08:38:41;;;;;;;11.63;10.52;;;18.30;99.90;;;;;;5120611;27;21104;-86
2023/05/08 08:41:06;;;;;;;11.63;10.52;;;18.40;99.90;;;;;;5113597;27;20127;-86
2023/05/08 08:43:33;;;;;;;11.95;10.85;;;18.80;99.90;;;;;;5094685;27;20081;-86
2023/05/08 08:46:09;;;;;;;11.70;10.60;;;19.10;99.90;;;;;;5115668;27;20047;-87
2023/05/08 08:48:40;;;;;;;11.60;10.48;;;18.80;99.90;;;;;;5133355;27;20176;-86
2023/05/08 08:51:10;;;;;;;12.15;10.90;;;18.90;99.90;;;;;;5133108;27;20042;-86
2023/05/08 08:53:41;;;;;;;12.18;10.98;;;19.10;99.90;;;;;;5133134;27;20106;-85
2023/05/08 08:56:08;;;;;;;11.77;10.68;;;19.30;99.90;;;;;;5115237;27;20055;-85
2023/05/08 08:59:03;;;;;;;12.07;10.98;;;19.20;99.90;;;;;;5116568;27;20065;-87
2023/05/08 09:01:30;;;;;;;10.85;9.75;;;19.40;99.90;;;;;;5101421;27;20392;-86
2023/05/08 09:03:58;;;;;;;10.77;9.88;;;19.30;99.90;;;;;;5152062;27;20047;-87
2023/05/08 09:06:24;;;;;;;10.95;9.98;;;19.40;99.90;;;;;;5136605;27;20097;-85
2023/05/08 09:08:53;;;;;;;11.48;10.27;;;19.40;99.90;;;;;;5112014;27;20079;-85
2023/05/08 09:11:19;;;;;;;11.98;10.80;;;19.40;99.90;;;;;;5091845;28;20051;-86
2023/05/08 09:13:44;;;;;;;11.95;10.68;;;19.70;99.90;;;;;;5104948;27;20035;-85
2023/05/08 09:16:10;;;;;;;12.23;11.02;;;19.60;99.90;;;;;;5112311;27;20047;-84
2023/05/08 09:18:35;;;;;;;11.43;10.43;;;19.40;99.90;;;;;;5111664;27;20096;-83
2023/05/08 09:21:01;;;;;;;12.90;11.70;;;19.50;99.90;;;;;;5130486;27;20144;-83
2023/05/08 09:23:27;;;;;;;13.25;12.05;;;19.50;99.90;;;;;;5111151;27;20438;-84
2023/05/08 09:25:53;;;;;;;11.82;10.80;;;19.50;99.90;;;;;;5110960;27;20508;-84
2023/05/08 09:28:21;;;;;;;11.82;10.73;;;19.60;99.90;;;;;;5111883;27;20058;-83
2023/05/08 09:30:59;;;;;;;12.13;11.00;;;19.70;99.90;;;;;;5111206;27;20091;-85
2023/05/08 09:33:27;;;;;;;12.00;10.88;;;19.90;99.90;;;;;;5110575;27;20039;-86
2023/05/08 09:35:54;;;;;;;12.60;11.32;;;19.90;99.90;;;;;;5110388;27;20130;-86
2023/05/08 09:38:40;;;;;;;12.40;11.27;;;19.90;99.90;;;;;;5130005;27;20485;-85
2023/05/08 09:41:15;;;;;;;12.90;11.70;;;19.90;99.90;;;;;;5112722;27;20112;-88
2023/05/08 09:43:58;;;;;;;12.50;11.20;;;19.90;99.90;;;;;;5092936;27;20822;-82
2023/05/08 09:46:26;;;;;;;11.07;9.98;;;20.00;99.90;;;;;;5094374;27;20055;-84
2023/05/08 09:49:02;;;;;;;13.07;11.43;;;20.00;99.90;;;;;;5094427;27;20138;-84
2023/05/08 09:51:29;;;;;;;12.57;11.27;;;20.00;99.90;;;;;;5090865;27;20076;-85
2023/05/08 09:53:57;;;;;;;14.45;12.38;;;20.00;99.90;;;;;;5109696;27;20054;-85
2023/05/08 09:56:32;;;;;;;12.85;11.75;;;20.00;99.90;;;;;;5110015;27;20108;-86
2023/05/08 09:58:57;;;;;;;12.85;11.68;;;20.00;99.90;;;;;;5129618;27;20500;-85
2023/05/08 10:01:32;;;;;;;13.13;11.75;;;20.10;99.90;;;;;;5110534;27;20039;-84
2023/05/08 10:03:58;;;;;;;14.38;12.02;;;20.10;99.90;;;;;;5128949;27;20042;-85
2023/05/08 10:06:26;;;;;;;13.38;12.15;;;20.60;99.90;;;;;;5129977;27;20035;-84
2023/05/08 10:09:14;;;;;;;13.38;12.00;;;20.40;99.90;;;;;;5139580;27;20062;-83
2023/05/08 10:11:50;;;;;;;12.60;11.30;;;20.60;99.90;;;;;;5140910;27;20055;-83
2023/05/08 10:14:16;;;;;;;12.38;11.15;;;20.70;99.90;;;;;;5129767;27;20035;-84
2023/05/08 10:16:44;;;;;;;12.23;11.10;;;20.80;99.90;;;;;;5128703;27;20034;-86
2023/05/08 10:19:15;;;;;;;12.05;10.95;;;20.90;99.90;;;;;;5125494;27;20050;-85
2023/05/08 10:21:45;;;;;;;13.05;11.85;;;20.90;99.90;;;;;;5117619;27;20520;-84
2023/05/08 10:24:32;;;;;;;13.55;11.93;;;21.00;99.90;;;;;;5117268;27;20047;-84
2023/05/08 10:27:11;;;;;;;13.30;12.00;;;21.00;99.90;;;;;;5124639;27;20180;-86
2023/05/08 10:29:51;;;;;;;12.63;11.32;;;21.10;99.90;;;;;;5123408;27;20042;-84
2023/05/08 10:32:19;;;;;;;14.93;12.23;;;21.70;99.90;;;;;;5150266;27;20083;-84
2023/05/08 10:34:58;;;;;;;13.10;11.90;;;21.10;99.90;;;;;;5133376;27;20751;-84
2023/05/08 10:37:23;;;;;;;13.43;12.05;;;21.10;99.90;;;;;;5129544;27;20074;-84
2023/05/08 10:39:50;;;;;;;13.63;12.40;;;21.40;99.90;;;;;;5128483;27;20482;-84
2023/05/08 10:42:17;;;;;;;13.00;11.80;;;21.10;99.90;;;;;;5134516;27;20049;-84
2023/05/08 10:44:44;;;;;;;12.38;11.13;;;21.20;99.90;;;;;;5149146;27;20104;-84
2023/05/08 10:47:42;;;;;;;12.30;11.10;;;21.30;99.90;;;;;;5149043;27;20454;-83
2023/05/08 10:50:10;;;;;;;13.10;11.70;;;21.50;99.90;;;;;;5089606;27;20048;-84
2023/05/08 10:52:47;;;;;;;14.00;12.13;;;21.50;99.90;;;;;;5096012;28;20043;-84
2023/05/08 10:55:26;;;;;;;12.10;11.00;;;21.60;99.10;;;;;;5115368;27;20053;-84
2023/05/08 10:58:02;;;;;;;13.57;12.27;;;21.60;98.50;;;;;;5149127;27;20083;-85
2023/05/08 11:00:51;;;;;;;12.95;11.70;;;21.60;98.30;;;;;;5130250;27;20062;-84
2023/05/08 11:03:23;;;;;;;13.80;12.50;;;21.60;97.50;;;;;;5119057;27;20074;-84
2023/05/08 11:05:52;;;;;;;12.13;10.85;;;21.80;97.50;;;;;;5104371;27;20137;-84
2023/05/08 11:08:26;;;;;;;12.13;10.93;;;21.60;97.60;;;;;;5118847;28;20073;-84
2023/05/08 11:11:00;;;;;;;12.15;11.05;;;21.70;98.00;;;;;;5128437;28;20082;-84
2023/05/08 11:14:08;;;;;;;12.55;11.45;;;22.00;97.70;;;;;;5110532;28;20050;-84
2023/05/08 11:16:52;;;;;;;13.10;10.68;;;22.00;94.60;;;;;;5120910;28;20062;-84
2023/05/08 11:19:19;;;;;;;12.05;10.95;;;22.10;94.70;;;;;;5129149;28;20051;-84
2023/05/08 11:22:15;;;;;;;12.38;10.30;;;22.10;96.40;;;;;;5091888;28;20081;-85
2023/05/08 11:24:48;;;;;;;11.95;10.82;;;22.20;94.40;;;;;;5090888;27;20104;-83
2023/05/08 11:27:14;;;;;;;11.18;10.18;;;22.30;95.30;;;;;;5132944;27;20140;-83
2023/05/08 11:29:40;;;;;;;12.75;11.60;;;22.40;95.70;;;;;;5093015;28;20054;-84
2023/05/08 11:32:06;;;;;;;13.45;12.25;;;22.60;94.90;;;;;;5109012;27;20041;-82
2023/05/08 11:34:41;;;;;;;13.38;11.98;;;22.30;94.60;;;;;;5126778;27;20464;-85
2023/05/08 11:37:20;;;;;;;13.90;12.55;;;22.40;94.00;;;;;;5108294;28;20183;-84
2023/05/08 11:39:47;;;;;;;15.75;11.60;;;22.20;93.70;;;;;;5125734;28;20039;-82
2023/05/08 11:42:28;;;;;;;13.45;12.25;;;22.20;95.20;;;;;;5126820;28;20126;-84
2023/05/08 11:45:12;;;;;;;14.05;12.77;;;22.30;95.30;;;;;;5109691;28;20055;-83
2023/05/08 11:47:43;;;;;;;12.93;11.73;;;22.70;94.90;;;;;;5125032;28;20087;-84
2023/05/08 11:50:13;;;;;;;12.40;11.27;;;22.50;94.30;;;;;;5121075;28;20047;-83
2023/05/08 11:52:41;;;;;;;12.27;11.07;;;22.50;94.80;;;;;;5095874;28;20293;-83
2023/05/08 11:55:09;;;;;;;14.55;13.10;;;22.60;95.20;;;;;;5127598;28;20043;-83
2023/05/08 11:57:35;;;;;;;13.80;12.55;;;22.60;94.10;;;;;;5130099;27;20043;-83
2023/05/08 12:00:09;;;;;;;13.93;12.50;;;22.70;94.40;;;;;;5113113;27;20155;-81
2023/05/08 12:02:39;;;;;;;12.18;11.07;;;22.50;94.10;;;;;;5109160;27;20074;-81
2023/05/08 12:05:09;;;;;;;14.30;11.45;;;22.60;94.70;;;;;;5133373;27;20046;-82
2023/05/08 12:07:45;;;;;;;13.55;12.15;;;22.80;95.70;;;;;;5152451;27;20489;-82
2023/05/08 12:10:13;;;;;;;12.77;11.57;;;23.10;94.30;;;;;;5152548;27;20078;-82
2023/05/08 12:12:40;;;;;;;12.45;11.13;;;22.80;94.30;;;;;;5141198;27;20039;-82
2023/05/08 12:15:11;;;;;;;12.85;11.73;;;22.70;94.50;;;;;;5113182;27;20476;-80
2023/05/08 12:17:36;;;;;;;17.25;12.45;;;22.80;92.30;;;;;;5111883;27;20396;-85
2023/05/08 12:20:14;;;;;;;13.57;12.23;;;22.90;94.70;;;;;;5112353;27;20095;-83
2023/05/08 12:22:40;;;;;;;11.27;10.15;;;23.00;93.50;;;;;;5107493;27;20047;-83
2023/05/08 12:25:09;;;;;;;12.63;11.43;;;23.20;94.50;;;;;;5119095;27;20054;-82
2023/05/08 12:27:36;;;;;;;12.13;11.02;;;23.40;93.60;;;;;;5152378;27;20087;-83
2023/05/08 12:30:07;;;;;;;10.80;9.70;;;23.80;92.80;;;;;;5140474;27;20126;-83
2023/05/08 12:32:35;;;;;;;13.75;12.35;;;23.70;91.50;;;;;;5132031;27;20035;-83
2023/05/08 12:35:01;;;;;;;11.32;10.25;;;23.60;91.40;;;;;;5131924;27;20062;-83
2023/05/08 12:37:27;;;;;;;13.40;12.20;;;23.60;92.30;;;;;;5113228;27;21129;-85
2023/05/08 12:39:53;;;;;;;12.93;11.60;;;23.60;91.70;;;;;;5112828;27;20480;-86
2023/05/08 12:42:18;;;;;;;12.00;10.80;;;23.80;92.00;;;;;;5112653;27;20053;-86